sensor_id;sensor_type;location;lat;lon;timestamp;pressure;altitude;pressure_sealevel;temperature;humidity
64610;BME280;51019;46.090;6.350;2023-05-08T00:01:39;96951.03;;;12.71;100.00
64610;BME280;51019;46.090;6.350;2023-05-08T00:04:09;96953.38;;;12.75;100.00
64610;BME280;51019;46.090;6.350;2023-05-08T00:06:37;96953.94;;;12.68;100.00
64610;BME280;51019;46.090;6.350;2023-05-08T00:09:05;96955.00;;;12.76;100.00
64610;BME280;51019;46.090;6.350;2023-05-08T00:11:32;96955.28;;;12.82;100.00
64610;BME280;51019;46.090;6.350;2023-05-08T00:13:59;96951.06;;;12.89;100.00
64610;BME280;51019;46.090;6.350;2023-05-08T00:16:27;96946.28;;;12.85;100.00
64610;BME280;51019;46.090;6.350;2023-05-08T00:18:54;96946.66;;;12.90;100.00
64610;BME280;51019;46.090;6.350;2023-05-08T00:21:23;96945.88;;;12.80;100.00
64610;BME280;51019;46.090;6.350;2023-05-08T00:23:50;96950.31;;;12.79;100.00
64610;BME280;51019;46.090;6.350;2023-05-08T00:26:17;96948.44;;;12.89;100.00
64610;BME280;51019;46.090;6.350;2023-05-08T00:28:46;96919.06;;;12.66;100.00
64610;BME280;51019;46.090;6.350;2023-05-08T00:31:14;96936.38;;;12.69;100.00
64610;BME280;51019;46.090;6.350;2023-05-08T00:33:41;96934.84;;;12.66;100.00
64610;BME280;51019;46.090;6.350;2023-05-08T00:36:08;96951.47;;;12.67;100.00
64610;BME280;51019;46.090;6.350;2023-05-08T00:38:38;96951.28;;;12.78;100.00
64610;BME280;51019;46.090;6.350;2023-05-08T00:41:05;96953.56;;;12.63;100.00
64610;BME280;51019;46.090;6.350;2023-05-08T00:43:32;96945.28;;;12.58;100.00
64610;BME280;51019;46.090;6.350;2023-05-08T00:46:02;96957.03;;;12.64;100.00
64610;BME280;51019;46.090;6.350;2023-05-08T00:48:32;96954.50;;;12.72;100.00
64610;BME280;51019;46.090;6.350;2023-05-08T00:51:01;96944.03;;;12.62;100.00
64610;BME280;51019;46.090;6.350;2023-05-08T00:53:32;96961.94;;;12.77;100.00
64610;BME280;51019;46.090;6.350;2023-05-08T00:56:02;96957.41;;;12.69;100.00
64610;BME280;51019;46.090;6.350;2023-05-08T00:58:31;96967.50;;;12.73;100.00
64610;BME280;51019;46.090;6.350;2023-05-08T01:00:59;96959.22;;;12.68;100.00
64610;BME280;51019;46.090;6.350;2023-05-08T01:03:27;96940.34;;;12.46;100.00
64610;BME280;51019;46.090;6.350;2023-05-08T01:05:56;96958.47;;;12.76;100.00
64610;BME280;51019;46.090;6.350;2023-05-08T01:08:24;96967.25;;;12.67;100.00
64610;BME280;51019;46.090;6.350;2023-05-08T01:11:00;96921.13;;;12.45;100.00
64610;BME280;51019;46.090;6.350;2023-05-08T01:13:39;96963.50;;;12.69;100.00
64610;BME280;51019;46.090;6.350;2023-05-08T01:16:13;96963.09;;;12.64;100.00
64610;BME280;51019;46.090;6.350;2023-05-08T01:18:46;96963.16;;;12.82;100.00
64610;BME280;51019;46.090;6.350;2023-05-08T01:21:24;96966.34;;;12.86;100.00
64610;BME280;51019;46.090;6.350;2023-05-08T01:24:18;96963.66;;;12.95;100.00
64610;BME280;51019;46.090;6.350;2023-05-08T01:27:29;96961.59;;;12.89;100.00
64610;BME280;51019;46.090;6.350;2023-05-08T01:33:07;96960.81;;;12.79;100.00
64610;BME280;51019;46.090;6.350;2023-05-08T01:35:42;96962.63;;;12.79;100.00
64610;BME280;51019;46.090;6.350;2023-05-08T01:38:17;96959.06;;;12.70;100.00
64610;BME280;51019;46.090;6.350;2023-05-08T01:40:52;96947.75;;;12.60;100.00
64610;BME280;51019;46.090;6.350;2023-05-08T01:43:23;96950.00;;;12.55;100.00
64610;BME280;51019;46.090;6.350;2023-05-08T01:45:53;96949.28;;;12.53;100.00
64610;BME280;51019;46.090;6.350;2023-05-08T01:48:28;96944.34;;;12.50;100.00
64610;BME280;51019;46.090;6.350;2023-05-08T01:51:00;96944.34;;;12.50;100.00
64610;BME280;51019;46.090;6.350;2023-05-08T01:53:35;96947.94;;;12.49;100.00
64610;BME280;51019;46.090;6.350;2023-05-08T01:56:08;96940.75;;;12.51;100.00
64610;BME280;51019;46.090;6.350;2023-05-08T01:58:37;96947.50;;;12.53;100.00
64610;BME280;51019;46.090;6.350;2023-05-08T02:01:06;96946.06;;;12.41;100.00
64610;BME280;51019;46.090;6.350;2023-05-08T02:03:38;96933.59;;;12.33;100.00
64610;BME280;51019;46.090;6.350;2023-05-08T02:06:08;96952.41;;;12.39;100.00
64610;BME280;51019;46.090;6.350;2023-05-08T02:08:36;96950.63;;;12.39;100.00
64610;BME280;51019;46.090;6.350;2023-05-08T02:11:05;96946.47;;;12.36;100.00
64610;BME280;51019;46.090;6.350;2023-05-08T02:13:34;96949.47;;;12.42;100.00
64610;BME280;51019;46.090;6.350;2023-05-08T02:16:05;96950.06;;;12.35;100.00
64610;BME280;51019;46.090;6.350;2023-05-08T02:18:33;96923.22;;;12.32;100.00
64610;BME280;51019;46.090;6.350;2023-05-08T02:21:04;96953.59;;;12.54;100.00
64610;BME280;51019;46.090;6.350;2023-05-08T02:23:32;96950.00;;;12.55;100.00
64610;BME280;51019;46.090;6.350;2023-05-08T02:26:01;96947.66;;;12.52;100.00
64610;BME280;51019;46.090;6.350;2023-05-08T02:28:30;96932.03;;;12.50;100.00
64610;BME280;51019;46.090;6.350;2023-05-08T02:30:59;96951.66;;;12.56;100.00
64610;BME280;51019;46.090;6.350;2023-05-08T02:33:28;96952.94;;;12.52;100.00
64610;BME280;51019;46.090;6.350;2023-05-08T02:35:58;96952.09;;;12.42;100.00
64610;BME280;51019;46.090;6.350;2023-05-08T02:38:29;96937.50;;;12.29;100.00
64610;BME280;51019;46.090;6.350;2023-05-08T02:40:59;96947.19;;;12.29;100.00
64610;BME280;51019;46.090;6.350;2023-05-08T02:43:28;96943.44;;;12.31;100.00
64610;BME280;51019;46.090;6.350;2023-05-08T02:46:03;96944.41;;;12.30;100.00
64610;BME280;51019;46.090;6.350;2023-05-08T02:48:37;96943.00;;;12.36;100.00
64610;BME280;51019;46.090;6.350;2023-05-08T02:51:17;96945.22;;;12.41;100.00
64610;BME280;51019;46.090;6.350;2023-05-08T02:53:50;96949.88;;;12.47;100.00
64610;BME280;51019;46.090;6.350;2023-05-08T02:56:29;96940.09;;;12.39;100.00
64610;BME280;51019;46.090;6.350;2023-05-08T02:59:02;96944.13;;;12.33;100.00
64610;BME280;51019;46.090;6.350;2023-05-08T03:01:44;96936.38;;;12.32;100.00
64610;BME280;51019;46.090;6.350;2023-05-08T03:04:21;96936.22;;;12.33;100.00
64610;BME280;51019;46.090;6.350;2023-05-08T03:06:51;96931.25;;;12.40;100.00
64610;BME280;51019;46.090;6.350;2023-05-08T03:09:25;96935.53;;;12.41;100.00
64610;BME280;51019;46.090;6.350;2023-05-08T03:11:57;96940.06;;;12.49;100.00
64610;BME280;51019;46.090;6.350;2023-05-08T03:14:27;96939.78;;;12.42;100.00
64610;BME280;51019;46.090;6.350;2023-05-08T03:16:58;96938.16;;;12.41;100.00
64610;BME280;51019;46.090;6.350;2023-05-08T03:19:30;96942.03;;;12.37;100.00
64610;BME280;51019;46.090;6.350;2023-05-08T03:21:59;96939.59;;;12.26;100.00
64610;BME280;51019;46.090;6.350;2023-05-08T03:24:34;96941.69;;;12.13;100.00
64610;BME280;51019;46.090;6.350;2023-05-08T03:27:03;96937.84;;;12.07;100.00
64610;BME280;51019;46.090;6.350;2023-05-08T03:29:35;96939.06;;;12.13;100.00
64610;BME280;51019;46.090;6.350;2023-05-08T03:32:05;96936.47;;;12.03;100.00
64610;BME280;51019;46.090;6.350;2023-05-08T03:34:34;96932.88;;;12.04;100.00
64610;BME280;51019;46.090;6.350;2023-05-08T03:37:02;96916.00;;;11.97;100.00
64610;BME280;51019;46.090;6.350;2023-05-08T03:39:30;96930.66;;;11.99;100.00
64610;BME280;51019;46.090;6.350;2023-05-08T03:42:00;96927.88;;;12.11;100.00
64610;BME280;51019;46.090;6.350;2023-05-08T03:44:29;96925.50;;;12.08;100.00
64610;BME280;51019;46.090;6.350;2023-05-08T03:46:58;96926.50;;;12.07;100.00
64610;BME280;51019;46.090;6.350;2023-05-08T03:49:28;96915.63;;;11.92;100.00
64610;BME280;51019;46.090;6.350;2023-05-08T03:51:56;96936.56;;;12.11;100.00
64610;BME280;51019;46.090;6.350;2023-05-08T03:54:27;96938.22;;;12.12;100.00
64610;BME280;51019;46.090;6.350;2023-05-08T03:56:55;96937.72;;;11.99;100.00
64610;BME280;51019;46.090;6.350;2023-05-08T03:59:29;96937.47;;;11.83;100.00
64610;BME280;51019;46.090;6.350;2023-05-08T04:02:11;96929.16;;;11.78;100.00
64610;BME280;51019;46.090;6.350;2023-05-08T04:04:44;96944.53;;;11.82;100.00
64610;BME280;51019;46.090;6.350;2023-05-08T04:07:22;96934.28;;;11.79;100.00
64610;BME280;51019;46.090;6.350;2023-05-08T04:09:58;96940.78;;;11.85;100.00
64610;BME280;51019;46.090;6.350;2023-05-08T04:12:32;96934.44;;;11.78;100.00
64610;BME280;51019;46.090;6.350;2023-05-08T04:15:08;96939.13;;;11.84;100.00
64610;BME280;51019;46.090;6.350;2023-05-08T04:17:42;96935.63;;;12.03;100.00
64610;BME280;51019;46.090;6.350;2023-05-08T04:20:15;96918.94;;;11.84;100.00
64610;BME280;51019;46.090;6.350;2023-05-08T04:22:44;96935.34;;;12.06;100.00
64610;BME280;51019;46.090;6.350;2023-05-08T04:25:14;96945.19;;;11.94;100.00
64610;BME280;51019;46.090;6.350;2023-05-08T04:27:42;96938.28;;;11.93;100.00
64610;BME280;51019;46.090;6.350;2023-05-08T04:30:12;96947.25;;;11.90;100.00
64610;BME280;51019;46.090;6.350;2023-05-08T04:32:43;96939.09;;;11.74;100.00
64610;BME280;51019;46.090;6.350;2023-05-08T04:35:10;96931.25;;;11.84;100.00
64610;BME280;51019;46.090;6.350;2023-05-08T04:37:43;96945.19;;;11.94;100.00
64610;BME280;51019;46.090;6.350;2023-05-08T04:40:12;96939.63;;;11.97;100.00
64610;BME280;51019;46.090;6.350;2023-05-08T04:42:40;96946.84;;;11.95;100.00
64610;BME280;51019;46.090;6.350;2023-05-08T04:45:14;96933.16;;;12.01;100.00
64610;BME280;51019;46.090;6.350;2023-05-08T04:47:42;96949.31;;;11.96;100.00
64610;BME280;51019;46.090;6.350;2023-05-08T04:50:10;96944.38;;;11.93;100.00
64610;BME280;51019;46.090;6.350;2023-05-08T04:52:37;96948.75;;;12.12;100.00
64610;BME280;51019;46.090;6.350;2023-05-08T04:55:07;96953.16;;;12.12;100.00
64610;BME280;51019;46.090;6.350;2023-05-08T04:57:34;96953.72;;;12.15;100.00
64610;BME280;51019;46.090;6.350;2023-05-08T05:00:03;96952.56;;;12.37;100.00
64610;BME280;51019;46.090;6.350;2023-05-08T05:02:33;96954.63;;;12.33;100.00
64610;BME280;51019;46.090;6.350;2023-05-08T05:05:06;96955.44;;;12.44;100.00
64610;BME280;51019;46.090;6.350;2023-05-08T05:07:33;96960.31;;;12.39;100.00
64610;BME280;51019;46.090;6.350;2023-05-08T05:10:01;96956.56;;;12.31;100.00
64610;BME280;51019;46.090;6.350;2023-05-08T05:12:29;96965.81;;;12.45;100.00
64610;BME280;51019;46.090;6.350;2023-05-08T05:14:57;96955.88;;;12.39;100.00
64610;BME280;51019;46.090;6.350;2023-05-08T05:17:24;96962.66;;;12.32;100.00
64610;BME280;51019;46.090;6.350;2023-05-08T05:19:54;96964.75;;;12.28;100.00
64610;BME280;51019;46.090;6.350;2023-05-08T05:22:21;96969.94;;;12.48;100.00
64610;BME280;51019;46.090;6.350;2023-05-08T05:24:50;96970.34;;;12.53;100.00
64610;BME280;51019;46.090;6.350;2023-05-08T05:27:18;96974.34;;;12.57;100.00
64610;BME280;51019;46.090;6.350;2023-05-08T05:29:45;96963.13;;;12.55;100.00
64610;BME280;51019;46.090;6.350;2023-05-08T05:32:13;96960.94;;;12.50;100.00
64610;BME280;51019;46.090;6.350;2023-05-08T05:34:40;96976.31;;;12.82;100.00
64610;BME280;51019;46.090;6.350;2023-05-08T05:37:10;96972.44;;;12.77;100.00
64610;BME280;51019;46.090;6.350;2023-05-08T05:39:38;96984.00;;;12.66;100.00
64610;BME280;51019;46.090;6.350;2023-05-08T05:42:06;96985.78;;;12.75;100.00
64610;BME280;51019;46.090;6.350;2023-05-08T05:44:39;96985.59;;;12.86;100.00
64610;BME280;51019;46.090;6.350;2023-05-08T05:47:07;96981.72;;;12.81;100.00
64610;BME280;51019;46.090;6.350;2023-05-08T05:49:35;96994.00;;;12.90;100.00
64610;BME280;51019;46.090;6.350;2023-05-08T05:52:04;96981.25;;;12.95;100.00
64610;BME280;51019;46.090;6.350;2023-05-08T05:54:34;96988.41;;;13.02;100.00
64610;BME280;51019;46.090;6.350;2023-05-08T05:57:03;96973.16;;;13.06;100.00
64610;BME280;51019;46.090;6.350;2023-05-08T05:59:30;96985.84;;;13.10;100.00
64610;BME280;51019;46.090;6.350;2023-05-08T06:01:57;96985.78;;;13.30;100.00
64610;BME280;51019;46.090;6.350;2023-05-08T06:04:26;96950.75;;;13.29;100.00
64610;BME280;51019;46.090;6.350;2023-05-08T06:06:54;96972.53;;;13.93;100.00
64610;BME280;51019;46.090;6.350;2023-05-08T06:09:21;96976.06;;;14.01;100.00
64610;BME280;51019;46.090;6.350;2023-05-08T06:11:51;96992.16;;;14.16;100.00
64610;BME280;51019;46.090;6.350;2023-05-08T06:14:18;96988.75;;;14.41;100.00
64610;BME280;51019;46.090;6.350;2023-05-08T06:16:46;96978.13;;;14.93;100.00
64610;BME280;51019;46.090;6.350;2023-05-08T06:19:13;96984.19;;;14.77;100.00
64610;BME280;51019;46.090;6.350;2023-05-08T06:21:40;96993.13;;;14.59;100.00
64610;BME280;51019;46.090;6.350;2023-05-08T06:24:08;96978.25;;;14.49;100.00
64610;BME280;51019;46.090;6.350;2023-05-08T06:26:36;96994.22;;;14.48;100.00
64610;BME280;51019;46.090;6.350;2023-05-08T06:29:05;96973.84;;;14.32;100.00
64610;BME280;51019;46.090;6.350;2023-05-08T06:31:33;96984.16;;;14.26;100.00
64610;BME280;51019;46.090;6.350;2023-05-08T06:34:00;96981.00;;;14.22;100.00
64610;BME280;51019;46.090;6.350;2023-05-08T06:36:29;96999.97;;;14.26;100.00
64610;BME280;51019;46.090;6.350;2023-05-08T06:38:56;96997.38;;;14.08;100.00
64610;BME280;51019;46.090;6.350;2023-05-08T06:41:23;96985.97;;;14.25;100.00
64610;BME280;51019;46.090;6.350;2023-05-08T06:43:51;96990.56;;;14.41;100.00
64610;BME280;51019;46.090;6.350;2023-05-08T06:46:20;96989.16;;;14.55;100.00
64610;BME280;51019;46.090;6.350;2023-05-08T06:48:47;96986.59;;;14.71;100.00
64610;BME280;51019;46.090;6.350;2023-05-08T06:51:15;96970.78;;;14.71;100.00
64610;BME280;51019;46.090;6.350;2023-05-08T06:53:44;96985.63;;;14.72;100.00
64610;BME280;51019;46.090;6.350;2023-05-08T06:56:12;96977.81;;;14.88;100.00
64610;BME280;51019;46.090;6.350;2023-05-08T06:58:40;96986.47;;;15.14;100.00
64610;BME280;51019;46.090;6.350;2023-05-08T07:01:07;96989.78;;;15.16;100.00
64610;BME280;51019;46.090;6.350;2023-05-08T07:03:38;96983.53;;;15.25;100.00
64610;BME280;51019;46.090;6.350;2023-05-08T07:06:06;96983.03;;;15.22;100.00
64610;BME280;51019;46.090;6.350;2023-05-08T07:08:35;96980.59;;;15.37;100.00
64610;BME280;51019;46.090;6.350;2023-05-08T07:11:09;96985.03;;;15.36;100.00
64610;BME280;51019;46.090;6.350;2023-05-08T07:13:36;96998.69;;;15.66;100.00
64610;BME280;51019;46.090;6.350;2023-05-08T07:16:08;96986.66;;;16.04;100.00
64610;BME280;51019;46.090;6.350;2023-05-08T07:18:37;96973.59;;;16.18;100.00
64610;BME280;51019;46.090;6.350;2023-05-08T07:21:07;96990.59;;;15.91;100.00
64610;BME280;51019;46.090;6.350;2023-05-08T07:23:35;96986.31;;;16.15;100.00
64610;BME280;51019;46.090;6.350;2023-05-08T07:26:03;96991.56;;;16.80;100.00
64610;BME280;51019;46.090;6.350;2023-05-08T07:28:33;96988.16;;;16.94;100.00
64610;BME280;51019;46.090;6.350;2023-05-08T07:31:04;96987.28;;;17.10;100.00
64610;BME280;51019;46.090;6.350;2023-05-08T07:33:31;96974.38;;;17.15;100.00
64610;BME280;51019;46.090;6.350;2023-05-08T07:36:03;96974.22;;;17.08;100.00
64610;BME280;51019;46.090;6.350;2023-05-08T07:38:31;96985.81;;;17.07;100.00
64610;BME280;51019;46.090;6.350;2023-05-08T07:40:59;96980.44;;;16.92;100.00
64610;BME280;51019;46.090;6.350;2023-05-08T07:43:29;96966.03;;;17.26;100.00
64610;BME280;51019;46.090;6.350;2023-05-08T07:45:57;96977.63;;;17.56;100.00
64610;BME280;51019;46.090;6.350;2023-05-08T07:48:24;96984.13;;;17.99;100.00
64610;BME280;51019;46.090;6.350;2023-05-08T07:50:52;96968.88;;;18.53;100.00
64610;BME280;51019;46.090;6.350;2023-05-08T07:53:21;96987.50;;;18.16;100.00
64610;BME280;51019;46.090;6.350;2023-05-08T07:55:48;96979.84;;;17.75;100.00
64610;BME280;51019;46.090;6.350;2023-05-08T07:58:17;96987.53;;;18.07;100.00
64610;BME280;51019;46.090;6.350;2023-05-08T08:00:44;96984.13;;;17.99;100.00
64610;BME280;51019;46.090;6.350;2023-05-08T08:03:13;96976.81;;;17.24;100.00
64610;BME280;51019;46.090;6.350;2023-05-08T08:05:41;96978.31;;;17.19;100.00
64610;BME280;51019;46.090;6.350;2023-05-08T08:08:11;96973.56;;;17.06;100.00
64610;BME280;51019;46.090;6.350;2023-05-08T08:10:41;96976.75;;;16.93;100.00
64610;BME280;51019;46.090;6.350;2023-05-08T08:13:08;96967.00;;;16.94;100.00
64610;BME280;51019;46.090;6.350;2023-05-08T08:15:36;96983.53;;;17.04;100.00
64610;BME280;51019;46.090;6.350;2023-05-08T08:18:04;96977.88;;;17.07;100.00
64610;BME280;51019;46.090;6.350;2023-05-08T08:20:32;96972.63;;;17.30;100.00
64610;BME280;51019;46.090;6.350;2023-05-08T08:22:59;96980.88;;;16.96;100.00
64610;BME280;51019;46.090;6.350;2023-05-08T08:25:26;96963.63;;;17.08;100.00
64610;BME280;51019;46.090;6.350;2023-05-08T08:27:56;96957.75;;;16.90;100.00
64610;BME280;51019;46.090;6.350;2023-05-08T08:30:26;96972.66;;;17.53;100.00
64610;BME280;51019;46.090;6.350;2023-05-08T08:32:56;96962.75;;;17.24;100.00
64610;BME280;51019;46.090;6.350;2023-05-08T08:35:26;96968.97;;;17.70;100.00
64610;BME280;51019;46.090;6.350;2023-05-08T08:37:54;96966.72;;;18.04;100.00
64610;BME280;51019;46.090;6.350;2023-05-08T08:40:22;96966.25;;;17.47;100.00
64610;BME280;51019;46.090;6.350;2023-05-08T08:42:50;96959.97;;;17.48;100.00
64610;BME280;51019;46.090;6.350;2023-05-08T08:45:21;96953.56;;;17.34;100.00
64610;BME280;51019;46.090;6.350;2023-05-08T08:47:51;96963.75;;;17.76;100.00
64610;BME280;51019;46.090;6.350;2023-05-08T08:50:19;96952.91;;;17.63;100.00
64610;BME280;51019;46.090;6.350;2023-05-08T08:52:53;96952.22;;;17.69;100.00
64610;BME280;51019;46.090;6.350;2023-05-08T08:55:25;96957.38;;;17.63;100.00
64610;BME280;51019;46.090;6.350;2023-05-08T08:58:02;96970.78;;;17.61;100.00
64610;BME280;51019;46.090;6.350;2023-05-08T09:00:35;96956.91;;;17.28;100.00
64610;BME280;51019;46.090;6.350;2023-05-08T09:03:06;96959.03;;;17.33;100.00
64610;BME280;51019;46.090;6.350;2023-05-08T09:05:34;96959.13;;;17.48;100.00
64610;BME280;51019;46.090;6.350;2023-05-08T09:08:03;96944.34;;;17.53;100.00
64610;BME280;51019;46.090;6.350;2023-05-08T09:10:33;96951.34;;;17.77;100.00
64610;BME280;51019;46.090;6.350;2023-05-08T09:13:02;96947.69;;;17.78;100.00
64610;BME280;51019;46.090;6.350;2023-05-08T09:15:30;96958.69;;;17.90;100.00
64610;BME280;51019;46.090;6.350;2023-05-08T09:18:00;96958.22;;;17.86;100.00
64610;BME280;51019;46.090;6.350;2023-05-08T09:20:28;96966.69;;;18.42;100.00
64610;BME280;51019;46.090;6.350;2023-05-08T09:22:57;96971.31;;;18.63;100.00
64610;BME280;51019;46.090;6.350;2023-05-08T09:25:40;96972.34;;;18.01;100.00
64610;BME280;51019;46.090;6.350;2023-05-08T09:28:15;96970.47;;;17.87;100.00
64610;BME280;51019;46.090;6.350;2023-05-08T09:30:51;96968.00;;;17.86;100.00
64610;BME280;51019;46.090;6.350;2023-05-08T09:33:22;96974.94;;;17.87;100.00
64610;BME280;51019;46.090;6.350;2023-05-08T09:35:50;96964.91;;;17.82;100.00
64610;BME280;51019;46.090;6.350;2023-05-08T09:38:39;96960.63;;;17.96;100.00
64610;BME280;51019;46.090;6.350;2023-05-08T09:41:09;96967.28;;;18.14;100.00
64610;BME280;51019;46.090;6.350;2023-05-08T09:43:38;96965.31;;;17.94;100.00
64610;BME280;51019;46.090;6.350;2023-05-08T09:46:26;96972.34;;;19.06;100.00
64610;BME280;51019;46.090;6.350;2023-05-08T09:48:59;96971.47;;;19.20;100.00
64610;BME280;51019;46.090;6.350;2023-05-08T09:51:28;96976.59;;;19.21;100.00
64610;BME280;51019;46.090;6.350;2023-05-08T09:53:57;96955.56;;;18.91;100.00
64610;BME280;51019;46.090;6.350;2023-05-08T09:56:33;96976.72;;;18.32;100.00
64610;BME280;51019;46.090;6.350;2023-05-08T09:59:02;96981.97;;;18.55;100.00
64610;BME280;51019;46.090;6.350;2023-05-08T10:01:32;96968.22;;;18.89;100.00
64610;BME280;51019;46.090;6.350;2023-05-08T10:04:02;96982.31;;;19.04;100.00
64610;BME280;51019;46.090;6.350;2023-05-08T10:06:30;96983.56;;;19.22;100.00
64610;BME280;51019;46.090;6.350;2023-05-08T10:09:09;96970.63;;;19.34;100.00
64610;BME280;51019;46.090;6.350;2023-05-08T10:11:38;96979.22;;;18.71;100.00
64610;BME280;51019;46.090;6.350;2023-05-08T10:14:06;96981.16;;;18.39;100.00
64610;BME280;51019;46.090;6.350;2023-05-08T10:16:40;96970.47;;;19.21;100.00
64610;BME280;51019;46.090;6.350;2023-05-08T10:19:13;96968.94;;;19.63;100.00
64610;BME280;51019;46.090;6.350;2023-05-08T10:21:45;96973.97;;;20.64;100.00
64610;BME280;51019;46.090;6.350;2023-05-08T10:24:15;96966.63;;;21.07;98.06
64610;BME280;51019;46.090;6.350;2023-05-08T10:26:55;96964.16;;;20.43;100.00
64610;BME280;51019;46.090;6.350;2023-05-08T10:29:30;96969.78;;;21.24;94.90
64610;BME280;51019;46.090;6.350;2023-05-08T10:31:59;96964.25;;;19.65;97.22
64610;BME280;51019;46.090;6.350;2023-05-08T10:34:31;96955.22;;;20.51;89.66
64610;BME280;51019;46.090;6.350;2023-05-08T10:37:00;96956.53;;;19.91;92.63
64610;BME280;51019;46.090;6.350;2023-05-08T10:39:31;96962.91;;;19.75;97.39
64610;BME280;51019;46.090;6.350;2023-05-08T10:41:59;96955.06;;;19.88;100.00
64610;BME280;51019;46.090;6.350;2023-05-08T10:44:28;96942.97;;;19.29;93.39
64610;BME280;51019;46.090;6.350;2023-05-08T10:46:59;96950.00;;;19.36;97.65
64610;BME280;51019;46.090;6.350;2023-05-08T10:49:41;96953.88;;;19.91;95.26
64610;BME280;51019;46.090;6.350;2023-05-08T10:52:17;96952.50;;;19.74;96.69
64610;BME280;51019;46.090;6.350;2023-05-08T10:55:18;96960.97;;;19.48;100.00
64610;BME280;51019;46.090;6.350;2023-05-08T10:58:03;96960.63;;;19.36;100.00
64610;BME280;51019;46.090;6.350;2023-05-08T11:00:33;96954.81;;;19.26;100.00
64610;BME280;51019;46.090;6.350;2023-05-08T11:03:22;96948.81;;;19.39;100.00
64610;BME280;51019;46.090;6.350;2023-05-08T11:05:54;96940.06;;;19.09;100.00
64610;BME280;51019;46.090;6.350;2023-05-08T11:08:23;96928.25;;;18.97;100.00
64610;BME280;51019;46.090;6.350;2023-05-08T11:11:04;96942.47;;;19.04;100.00
64610;BME280;51019;46.090;6.350;2023-05-08T11:13:40;96940.09;;;19.45;100.00
64610;BME280;51019;46.090;6.350;2023-05-08T11:16:09;96939.44;;;19.43;100.00
64610;BME280;51019;46.090;6.350;2023-05-08T11:19:16;96934.63;;;19.32;100.00
64610;BME280;51019;46.090;6.350;2023-05-08T11:22:13;96934.47;;;19.54;100.00
64610;BME280;51019;46.090;6.350;2023-05-08T11:24:47;96924.00;;;19.68;100.00
64610;BME280;51019;46.090;6.350;2023-05-08T11:27:16;96929.13;;;19.90;97.88
64610;BME280;51019;46.090;6.350;2023-05-08T11:29:44;96929.72;;;20.14;97.82
64610;BME280;51019;46.090;6.350;2023-05-08T11:32:12;96928.53;;;20.16;96.01
64610;BME280;51019;46.090;6.350;2023-05-08T11:34:46;96931.56;;;20.69;93.74
64610;BME280;51019;46.090;6.350;2023-05-08T11:37:21;96910.81;;;20.58;90.16
64610;BME280;51019;46.090;6.350;2023-05-08T11:39:50;96929.66;;;21.38;84.11
64610;BME280;51019;46.090;6.350;2023-05-08T11:42:32;96930.09;;;21.42;84.05
64610;BME280;51019;46.090;6.350;2023-05-08T11:45:06;96928.13;;;23.78;62.32
64610;BME280;51019;46.090;6.350;2023-05-08T11:47:37;96921.72;;;21.58;67.58
64610;BME280;51019;46.090;6.350;2023-05-08T11:50:07;96920.72;;;21.66;64.93
64610;BME280;51019;46.090;6.350;2023-05-08T11:52:39;96915.94;;;20.31;66.95
64610;BME280;51019;46.090;6.350;2023-05-08T11:55:09;96903.22;;;20.27;68.34
64610;BME280;51019;46.090;6.350;2023-05-08T11:57:37;96910.72;;;20.79;68.06
64610;BME280;51019;46.090;6.350;2023-05-08T12:00:06;96916.28;;;20.84;65.16
64610;BME280;51019;46.090;6.350;2023-05-08T12:02:36;96911.81;;;20.57;67.37
64610;BME280;51019;46.090;6.350;2023-05-08T12:05:04;96910.03;;;20.64;67.34
64610;BME280;51019;46.090;6.350;2023-05-08T12:07:32;96911.59;;;21.27;64.98
64610;BME280;51019;46.090;6.350;2023-05-08T12:10:02;96910.03;;;21.53;65.69
64610;BME280;51019;46.090;6.350;2023-05-08T12:12:37;96904.84;;;21.38;64.74
64610;BME280;51019;46.090;6.350;2023-05-08T12:15:14;96897.78;;;22.11;63.47
64610;BME280;51019;46.090;6.350;2023-05-08T12:17:42;96909.16;;;21.39;62.16
64610;BME280;51019;46.090;6.350;2023-05-08T12:20:11;96884.16;;;21.47;61.35
64610;BME280;51019;46.090;6.350;2023-05-08T12:22:39;96887.66;;;20.99;63.82
64610;BME280;51019;46.090;6.350;2023-05-08T12:25:10;96878.91;;;21.99;59.03
64610;BME280;51019;46.090;6.350;2023-05-08T12:27:38;96883.81;;;22.29;59.79
64610;BME280;51019;46.090;6.350;2023-05-08T12:30:06;96888.31;;;22.35;57.60
64610;BME280;51019;46.090;6.350;2023-05-08T12:32:36;96887.09;;;22.31;57.02
64610;BME280;51019;46.090;6.350;2023-05-08T12:35:04;96893.47;;;22.03;59.87
64610;BME280;51019;46.090;6.350;2023-05-08T12:37:33;96893.66;;;22.41;57.46
64610;BME280;51019;46.090;6.350;2023-05-08T12:40:01;96894.09;;;21.99;58.28
64610;BME280;51019;46.090;6.350;2023-05-08T12:42:44;96896.91;;;21.64;59.73
64610;BME280;51019;46.090;6.350;2023-05-08T12:45:16;96900.19;;;21.66;61.55
64610;BME280;51019;46.090;6.350;2023-05-08T12:47:46;96899.81;;;22.02;59.61
64610;BME280;51019;46.090;6.350;2023-05-08T12:50:14;96891.81;;;22.42;64.18
64610;BME280;51019;46.090;6.350;2023-05-08T12:52:42;96895.31;;;22.29;63.69
64610;BME280;51019;46.090;6.350;2023-05-08T12:55:21;96883.56;;;22.50;63.34
64610;BME280;51019;46.090;6.350;2023-05-08T12:58:04;96886.59;;;22.73;56.86
64610;BME280;51019;46.090;6.350;2023-05-08T13:00:39;96885.31;;;22.96;57.70
64610;BME280;51019;46.090;6.350;2023-05-08T13:05:36;96882.34;;;22.39;61.19
64610;BME280;51019;46.090;6.350;2023-05-08T13:08:05;96882.16;;;22.41;61.57
64610;BME280;51019;46.090;6.350;2023-05-08T13:10:53;96888.25;;;22.61;62.06
64610;BME280;51019;46.090;6.350;2023-05-08T13:13:24;96880.91;;;22.37;60.88
64610;BME280;51019;46.090;6.350;2023-05-08T13:15:53;96876.84;;;22.08;60.51
64610;BME280;51019;46.090;6.350;2023-05-08T13:18:23;96892.41;;;21.85;61.30